Flight Track Log - Related Links

Times and Time Zones

All times are in EDT time to prevent confusion due to time zone crossing. See the UPS1337 flight status page for this flight to view local times or setup timezone preferences in your user account.

Time Position Orientation Groundspeed Altitude Reporting Facility
EDT Latitude Longitude Course Direction KTS MPH feet Rate Location/Type
Thu 09:45:09 PM 27.9500 -82.6833 330° Northwest 178 205 2,300  Level Tampa TRACON
Thu 09:46:09 PM 28.0167 -82.6833 360° North 251 289 5,100 2,840 Climbing Tampa TRACON
Thu 09:48:17 PM 28.1603 -82.7250 346° North 255 293 11,200 2,381 Climbing Miami Center
Thu 09:49:18 PM 28.2589 -82.7528 346° North 355 409 12,600 2,173 Climbing Miami Center
Thu 09:50:00 PM 28.4867 -83.0404 330° Northwest  Level FlightAware Approximate
Thu 09:50:24 PM 28.3669 -82.7911 343° North 362 417 15,800  Level Jacksonville Center
Thu 09:51:24 PM 28.4631 -82.8667 325° Northwest 389 448 18,200 2,550 Climbing Jacksonville Center
Thu 09:52:24 PM 28.5569 -82.9444 324° Northwest 406 467 20,900 2,571 Climbing Jacksonville Center
Thu 09:53:16 PM 28.6599 -83.0248 326° Northwest 445 512 23,000 2,000 Climbing FlightAware ADS-B
Thu 09:53:24 PM 28.6550 -83.0228 325° Northwest 425 489 22,900 1,853 Descending Jacksonville Center
Thu 09:54:24 PM 28.7653 -83.0917 331° Northwest 441 507 25,100 2,000 Climbing Jacksonville Center
Thu 09:55:24 PM 28.8886 -83.1250 347° North 441 507 26,900 1,550 Climbing Jacksonville Center
Thu 09:56:24 PM 29.0158 -83.1608 346° North 451 519 28,200 1,600 Climbing Jacksonville Center
Thu 09:57:24 PM 29.1450 -83.1944 347° North 464 534 30,100 1,800 Climbing Jacksonville Center
Thu 09:58:24 PM 29.2744 -83.2283 347° North 472 543 31,800 1,750 Climbing Jacksonville Center
Thu 09:59:24 PM 29.3994 -83.2644 346° North 466 536 33,600 1,100 Climbing Jacksonville Center
Thu 10:00:24 PM 29.5289 -83.2983 347° North 466 536 34,000 61 Climbing Jacksonville Center
Thu 10:05:59 PM 30.2380 -83.4849 347° North 455 524 34,000  Level FlightAware ADS-B (KONZ)
Thu 10:06:44 PM 30.3378 -83.5115 347° North 453 521 34,000  Level FlightAware ADS-B (KONZ)
Thu 10:07:34 PM 30.4400 -83.5393 347° North 454 522 34,000  Level FlightAware ADS-B (KONZ)
Thu 10:08:07 PM 30.5071 -83.5576 347° North 456 525 34,000  Level FlightAware ADS-B (KONZ)
Thu 10:08:43 PM 30.5809 -83.5778 347° North 457 526 34,000  Level FlightAware ADS-B (KONZ)
Thu 10:09:13 PM 30.6429 -83.5947 347° North 456 525 34,000  Level FlightAware ADS-B (KONZ)
Thu 10:09:43 PM 30.6997 -83.6097 347° North 455 524 34,000  Level FlightAware ADS-B (KONZ)
Thu 10:10:13 PM 30.7670 -83.6281 347° North 454 522 34,000  Level FlightAware ADS-B (KONZ)
Thu 10:11:03 PM 30.8611 -83.6540 347° North 460 529 34,000  Level FlightAware ADS-B (KONZ)
Thu 10:12:03 PM 30.9901 -83.6896 347° North 462 532 34,000  Level FlightAware ADS-B (KONZ)
Thu 10:12:46 PM 31.0837 -83.7153 347° North 462 532 34,000  Level FlightAware ADS-B (KONZ)
Thu 10:13:18 PM 31.1516 -83.7336 347° North 462 532 34,000  Level FlightAware ADS-B (KONZ)
Thu 10:13:57 PM 31.2326 -83.7558 347° North 459 528 34,000  Level FlightAware ADS-B (KONZ)
Thu 10:14:38 PM 31.3161 -83.7786 347° North 460 529 34,000  Level FlightAware ADS-B (KONZ)
Thu 10:15:11 PM 31.3728 -83.7981 347° North 466 536 34,000  Level Atlanta Center
Thu 10:16:11 PM 31.5003 -83.8342 346° North 460 529 34,000  Level Atlanta Center
Thu 10:17:11 PM 31.6003 -83.8658 345° North 460 529 34,000  Level Atlanta Center
Thu 10:18:11 PM 31.7444 -83.9069 346° North 465 535 34,000  Level Atlanta Center
Thu 10:19:11 PM 31.8675 -83.9361 349° North 465 535 34,000  Level Atlanta Center
Thu 10:20:11 PM 31.9928 -83.9703 347° North 465 535 34,000  Level Atlanta Center
Thu 10:21:11 PM 32.1181 -84.0044 347° North 465 535 34,000  Level Atlanta Center
Thu 10:22:11 PM 32.2475 -84.0414 346° North 465 535 34,000  Level Atlanta Center
Thu 10:23:11 PM 32.3728 -84.0758 347° North 465 535 34,000  Level Atlanta Center
Thu 10:24:11 PM 32.4981 -84.1128 346° North 465 535 34,000  Level Atlanta Center
Thu 10:25:11 PM 32.6233 -84.1597 342° North 465 535 34,000  Level Atlanta Center
Thu 10:26:11 PM 32.7128 -84.2733 313° West 450 518 34,000  Level Atlanta Center
Thu 10:27:11 PM 32.7981 -84.3897 311° West 455 524 34,000  Level Atlanta Center
Thu 10:28:11 PM 32.8853 -84.5064 312° West 460 529 34,000  Level Atlanta Center
Thu 10:29:11 PM 32.9725 -84.6158 314° West 465 535 34,000  Level Atlanta Center
Thu 10:30:11 PM 33.0575 -84.7303 312° West 465 535 34,000  Level Atlanta Center
Thu 10:35:47 PM 33.7880 -84.9773 312° West 467 537 34,000  Level FlightAware ADS-B (KDZJ)
Thu 10:36:06 PM 33.8291 -84.9773 360° North 466 536 34,000  Level FlightAware ADS-B (KDZJ)
Thu 10:36:47 PM 33.9186 -84.9772 North 466 536 34,000  Level FlightAware ADS-B (KDZJ)
Thu 10:37:08 PM 33.9627 -84.9772 360° North 466 536 34,000  Level FlightAware ADS-B (KDZJ)
Thu 10:37:47 PM 34.0471 -84.9774 360° North 467 537 34,000  Level FlightAware ADS-B (KDZJ)
Thu 10:39:52 PM 34.3174 -84.9776 360° North 470 541 34,000  Level FlightAware ADS-B (KDZJ)
Thu 10:41:47 PM 34.5657 -84.9776 360° North 463 533 34,000  Level FlightAware ADS-B (KDZJ)
Thu 10:42:26 PM 34.6501 -84.9777 360° North 466 536 34,000  Level FlightAware ADS-B (KDZJ)
Thu 10:43:27 PM 34.7813 -84.9778 360° North 466 536 34,000  Level FlightAware ADS-B (KDZJ)
Thu 10:44:08 PM 34.8690 -84.9777 360° North 466 536 34,000  Level FlightAware ADS-B (KDZJ)
Thu 10:44:47 PM 34.9552 -84.9777 360° North 466 536 34,000  Level FlightAware ADS-B (KDZJ)
Thu 10:45:27 PM 35.0410 -84.9777 360° North 441 507 34,000  Level FlightAware ADS-B (KDZJ)
Thu 10:46:06 PM 35.1250 -84.9778 360° North 470 541 34,000  Level FlightAware ADS-B (KDZJ)
Thu 10:49:06 PM 35.4666 -84.9782 360° North 478 550 34,000  Level FlightAware ADS-B (KMDQ)
Thu 10:50:06 PM 35.5828 -84.9792 360° North 475 547 34,000 -558 Level Indianapolis Center
Thu 10:56:16 PM 36.3772 -85.1169 349° North 460 529 30,000 -670 Descending FlightAware ADS-B
Thu 10:57:07 PM 36.4866 -85.1316 North 470 541 29,300 -978 Descending FlightAware ADS-B
Thu 10:58:31 PM 36.6663 -85.1038 North 465 535 27,800 -1,218 Descending FlightAware ADS-B
Thu 10:59:20 PM 36.7258 -85.0946 North 472 543 26,600 -1,850 Descending FlightAware ADS-B
Thu 11:00:31 PM 36.9169 -85.0661 North 447 514 24,100 -2,173 Descending FlightAware ADS-B
Thu 11:01:27 PM 37.0342 -85.0479 North 422 486 22,000 -2,250 Descending FlightAware ADS-B
Thu 11:02:31 PM 37.1528 -85.0299 North 402 463 19,600 -2,274 Descending FlightAware ADS-B
Thu 11:03:31 PM 37.2654 -85.0123 North 398 458 17,300 -2,270 Descending FlightAware ADS-B
Thu 11:04:22 PM 37.3275 -85.0030 North 382 440 15,400 -2,296 Descending FlightAware ADS-B
Thu 11:05:26 PM 37.4674 -84.9816 North 367 422 12,900 -2,227 Descending FlightAware ADS-B
Thu 11:05:59 PM 37.5229 -84.9731 North 359 413 11,800 -908 Descending FlightAware ADS-B
Thu 11:08:31 PM 37.7283 -85.0529 312° West 327 376 10,100 -529 Descending FlightAware ADS-B
Thu 11:09:23 PM 37.7821 -85.1278 312° West 326 375 10,000 -303 Descending FlightAware ADS-B
Thu 11:10:30 PM 37.8316 -85.2206 291° West 271 312 9,500 -992 Descending FlightAware ADS-B
Thu 11:11:30 PM 37.8579 -85.3109 290° West 272 313 7,900 -1,600 Descending FlightAware ADS-B
Thu 11:12:30 PM 37.8839 -85.4004 291° West 269 310 6,300 -1,636 Descending FlightAware ADS-B
Thu 11:13:31 PM 37.9110 -85.4912 290° West 275 316 4,600 -1,140 Descending FlightAware ADS-B
Thu 11:14:31 PM 37.9376 -85.5814 290° West 258 297 4,000 -347 Descending FlightAware ADS-B
Thu 11:15:32 PM 37.9665 -85.6568 315° West 226 260 3,900 -400 Descending FlightAware ADS-B
Thu 11:16:31 PM 38.0142 -85.6921 347° North 190 219 3,200 -769 Descending FlightAware ADS-B
Thu 11:17:29 PM 38.0613 -85.7074 345° North 177 204 2,400 -814 Descending FlightAware ADS-B
Thu 11:18:29 PM 38.0988 -85.7196 346° North 136 157 1,600 -757 Descending FlightAware ADS-B
Thu 11:19:12 PM 38.1291 -85.7296 345° North 134 154 1,100 -698 Descending FlightAware ADS-B
Thu 11:26:00 PM 38.1667 -85.7333 208° Southwest  Level FlightAware Approximate
Thu 11:27:00 PM 38.1741 -85.7365 208° Southwest  Level Estimated
Thu 11:28:00 PM 38.1741 -85.7365 208° Southwest  Level Estimated

Login

Don't have an account? Register now (free) for customized features, flight alerts, and more!